Time;durP1;ratioP1;P1;durP2;ratioP2;P2;SDS_P1;SDS_P2;PMS_P1;PMS_P2;Temp;Humidity;BMP_temperature;BMP_pressure;BME280_temperature;BME280_humidity;BME280_pressure;Samples;Min_cycle;Max_cycle;Signal;HPM_P1;HPM_P2
2024/04/14 00:00:47;;;;;;;9.33;1.97;;;16.30;99.90;;;;;;7289031;19;20599;-79
2024/04/14 00:03:13;;;;;;;6.77;2.03;;;16.20;99.90;;;;;;7287540;19;20443;-80
2024/04/14 00:05:39;;;;;;;7.07;2.10;;;16.20;99.90;;;;;;7287770;19;20189;-80
2024/04/14 00:08:05;;;;;;;6.17;2.10;;;16.10;99.90;;;;;;7288349;19;20185;-80
2024/04/14 00:10:31;;;;;;;4.53;1.80;;;16.10;99.90;;;;;;7285305;19;20195;-79
2024/04/14 00:12:57;;;;;;;7.30;2.10;;;16.00;99.90;;;;;;7286445;19;20586;-79
2024/04/14 00:15:24;;;;;;;7.13;2.00;;;15.90;99.90;;;;;;7289283;19;20184;-79
2024/04/14 00:17:49;;;;;;;7.83;2.10;;;15.90;99.90;;;;;;7310207;19;20207;-81
2024/04/14 00:20:15;;;;;;;5.33;2.00;;;15.90;99.90;;;;;;7287143;19;20713;-80
2024/04/14 00:22:41;;;;;;;9.13;2.20;;;15.90;99.90;;;;;;7287344;19;20209;-80
2024/04/14 00:25:07;;;;;;;5.97;2.07;;;15.80;99.90;;;;;;7287125;19;20189;-79
2024/04/14 00:27:33;;;;;;;5.77;2.20;;;15.80;99.90;;;;;;7287663;19;20538;-80
2024/04/14 00:29:59;;;;;;;7.93;2.10;;;15.70;99.90;;;;;;7287088;19;20181;-79
2024/04/14 00:32:25;;;;;;;6.73;2.20;;;15.70;99.90;;;;;;7287682;19;20237;-79
2024/04/14 00:34:51;;;;;;;9.20;2.67;;;15.80;99.90;;;;;;7309359;19;20208;-80
2024/04/14 00:37:17;;;;;;;9.47;2.77;;;15.70;99.90;;;;;;7286383;19;20185;-80
2024/04/14 00:39:43;;;;;;;8.00;2.27;;;15.60;99.90;;;;;;7284651;19;20715;-80
2024/04/14 00:42:09;;;;;;;10.53;2.20;;;15.60;99.90;;;;;;7286977;19;20217;-80
2024/04/14 00:44:35;;;;;;;5.77;2.30;;;15.60;99.90;;;;;;7286518;19;20248;-79
2024/04/14 00:47:06;;;;;;;5.20;2.03;;;15.40;99.90;;;;;;7286191;19;20209;-79
2024/04/14 00:49:33;;;;;;;5.07;2.13;;;15.40;99.90;;;;;;7286889;19;20189;-80
2024/04/14 00:52:03;;;;;;;9.83;2.47;;;15.40;99.90;;;;;;7283593;19;20202;-80
2024/04/14 00:54:32;;;;;;;8.13;2.37;;;15.40;99.90;;;;;;7285654;19;20188;-79
2024/04/14 00:57:00;;;;;;;9.27;2.50;;;15.40;99.90;;;;;;7285503;19;20611;-80
2024/04/14 00:59:26;;;;;;;9.37;2.67;;;15.30;99.90;;;;;;7284176;19;20185;-79
2024/04/14 01:01:52;;;;;;;8.20;2.47;;;15.30;99.90;;;;;;7296647;19;20188;-79
2024/04/14 01:04:18;;;;;;;8.90;2.80;;;15.30;99.90;;;;;;7304367;19;20266;-80
2024/04/14 01:06:44;;;;;;;8.13;3.13;;;15.30;99.90;;;;;;7285977;19;20199;-79
2024/04/14 01:09:11;;;;;;;7.30;2.70;;;15.40;99.90;;;;;;7284918;19;20217;-80
2024/04/14 01:11:37;;;;;;;8.77;2.77;;;15.30;99.90;;;;;;7286176;19;20200;-80
2024/04/14 01:14:06;;;;;;;10.27;3.07;;;15.20;99.90;;;;;;7285945;19;20196;-79
2024/04/14 01:16:38;;;;;;;10.00;3.07;;;15.10;99.90;;;;;;7285030;19;20719;-80
2024/04/14 01:19:04;;;;;;;11.60;3.00;;;15.00;99.90;;;;;;7285342;19;20222;-79
2024/04/14 01:21:30;;;;;;;9.70;3.23;;;15.00;99.90;;;;;;7285014;19;20199;-80
2024/04/14 01:23:56;;;;;;;9.07;3.00;;;15.00;99.90;;;;;;7286029;19;21023;-79
2024/04/14 01:26:22;;;;;;;9.97;3.10;;;14.90;99.90;;;;;;7302305;19;20184;-79
2024/04/14 01:28:47;;;;;;;12.73;3.70;;;14.90;99.90;;;;;;7297181;19;20221;-80
2024/04/14 01:31:13;;;;;;;12.07;3.60;;;14.90;99.90;;;;;;7284659;19;20199;-80
2024/04/14 01:33:40;;;;;;;11.40;3.20;;;14.90;99.90;;;;;;7284500;19;20185;-79
2024/04/14 01:36:06;;;;;;;11.27;3.50;;;14.80;99.90;;;;;;7285001;19;20199;-80
2024/04/14 01:38:32;;;;;;;14.30;3.90;;;14.80;99.90;;;;;;7285908;19;20194;-80
2024/04/14 01:40:59;;;;;;;8.97;3.30;;;14.80;99.90;;;;;;7283778;19;20215;-79
2024/04/14 01:43:26;;;;;;;11.40;3.57;;;14.70;99.90;;;;;;7284697;19;20200;-80
2024/04/14 01:45:52;;;;;;;10.53;3.33;;;14.70;99.90;;;;;;7296624;19;20187;-79
2024/04/14 01:48:18;;;;;;;9.07;3.47;;;14.60;99.90;;;;;;7301528;19;20206;-80
2024/04/14 01:50:43;;;;;;;11.90;3.43;;;14.60;99.90;;;;;;7283349;19;20247;-79
2024/04/14 01:53:09;;;;;;;14.67;3.70;;;14.60;99.90;;;;;;7284303;19;20207;-79
2024/04/14 01:55:35;;;;;;;12.90;3.50;;;14.60;99.90;;;;;;7284786;19;20192;-79
2024/04/14 01:58:01;;;;;;;9.83;3.50;;;14.60;99.90;;;;;;7284489;19;20198;-79
2024/04/14 02:00:27;;;;;;;13.57;3.73;;;14.60;99.90;;;;;;7284071;19;20213;-80
2024/04/14 02:02:55;;;;;;;12.87;3.80;;;14.50;99.90;;;;;;7283250;19;20654;-79
2024/04/14 02:05:22;;;;;;;14.57;4.03;;;14.50;99.90;;;;;;7305561;19;20542;-80
2024/04/14 02:07:48;;;;;;;10.77;4.00;;;14.50;99.90;;;;;;7286351;19;20724;-80
2024/04/14 02:10:14;;;;;;;14.80;4.57;;;14.50;99.90;;;;;;7281023;19;20288;-80
2024/04/14 02:12:39;;;;;;;12.10;4.33;;;14.50;99.90;;;;;;7284571;19;20187;-80
2024/04/14 02:15:05;;;;;;;11.07;4.10;;;14.40;99.90;;;;;;7283746;19;20232;-80
2024/04/14 02:17:31;;;;;;;11.97;4.20;;;14.30;99.90;;;;;;7283085;19;20183;-79
2024/04/14 02:19:57;;;;;;;12.83;4.30;;;14.30;99.90;;;;;;7283996;19;20195;-79
2024/04/14 02:22:25;;;;;;;10.13;4.00;;;14.30;99.90;;;;;;7288617;19;20189;-79
2024/04/14 02:24:52;;;;;;;9.43;4.13;;;14.10;99.90;;;;;;7292805;19;20275;-79
2024/04/14 02:27:18;;;;;;;13.20;3.73;;;14.00;99.90;;;;;;7304599;19;20216;-80
2024/04/14 02:29:44;;;;;;;12.13;4.10;;;13.90;99.90;;;;;;7283474;19;20241;-80
2024/04/14 02:32:10;;;;;;;11.97;4.13;;;13.90;99.90;;;;;;7280966;19;20237;-79
2024/04/14 02:34:35;;;;;;;16.20;4.83;;;13.80;99.90;;;;;;7282393;19;20611;-79
2024/04/14 02:37:01;;;;;;;13.73;4.73;;;13.80;99.90;;;;;;7280837;19;20193;-79
2024/04/14 02:39:27;;;;;;;12.23;4.47;;;13.80;99.90;;;;;;7282540;19;20225;-80
2024/04/14 02:41:52;;;;;;;11.17;4.13;;;13.80;99.90;;;;;;7291936;19;20262;-79
2024/04/14 02:44:18;;;;;;;11.93;4.63;;;13.80;99.90;;;;;;7301996;19;20198;-79
2024/04/14 02:46:44;;;;;;;14.67;5.23;;;13.70;99.90;;;;;;7283805;19;20724;-80
2024/04/14 02:49:10;;;;;;;15.03;5.30;;;13.70;99.90;;;;;;7282345;19;20711;-79
2024/04/14 02:51:36;;;;;;;15.57;5.13;;;13.70;99.90;;;;;;7284150;19;20203;-80
2024/04/14 02:54:02;;;;;;;17.97;6.00;;;13.70;99.90;;;;;;7281972;19;20197;-80
2024/04/14 02:56:28;;;;;;;14.33;5.47;;;13.70;99.90;;;;;;7283279;19;20298;-79
2024/04/14 02:58:54;;;;;;;15.17;5.50;;;13.70;99.90;;;;;;7281770;19;20186;-79
2024/04/14 03:01:20;;;;;;;16.47;5.97;;;13.70;99.90;;;;;;7304675;19;20187;-80
2024/04/14 03:03:46;;;;;;;19.40;6.50;;;13.70;99.90;;;;;;7289062;19;20681;-80
2024/04/14 03:06:14;;;;;;;17.87;6.77;;;13.80;99.90;;;;;;7290704;19;20195;-80
2024/04/14 03:08:39;;;;;;;17.70;6.20;;;13.80;99.90;;;;;;7290707;19;20212;-80
2024/04/14 03:11:07;;;;;;;15.40;5.67;;;13.80;99.90;;;;;;7288839;19;20405;-79
2024/04/14 03:13:33;;;;;;;17.13;6.60;;;13.80;99.90;;;;;;7288614;19;20660;-80
2024/04/14 03:16:03;;;;;;;16.90;7.23;;;13.70;99.90;;;;;;7287853;19;20244;-79
2024/04/14 03:18:29;;;;;;;20.73;7.03;;;13.70;99.90;;;;;;7289281;19;20259;-80
2024/04/14 03:20:59;;;;;;;20.43;6.40;;;13.60;99.90;;;;;;7289078;19;20207;-79
2024/04/14 03:23:26;;;;;;;17.37;7.13;;;13.50;99.90;;;;;;7289858;19;20274;-79
2024/04/14 03:25:52;;;;;;;18.07;7.03;;;13.50;99.90;;;;;;7307068;19;20198;-77
2024/04/14 03:28:25;;;;;;;19.63;7.17;;;13.50;99.90;;;;;;7305432;19;20182;-79
2024/04/14 03:30:52;;;;;;;16.30;7.20;;;13.50;99.90;;;;;;7289801;19;20195;-79
2024/04/14 03:33:18;;;;;;;17.10;7.20;;;13.50;99.90;;;;;;7288892;19;20293;-79
2024/04/14 03:35:45;;;;;;;17.60;7.20;;;13.50;99.90;;;;;;7289125;19;20567;-79
2024/04/14 03:38:10;;;;;;;23.33;7.97;;;13.50;99.90;;;;;;7287954;19;20206;-79
2024/04/14 03:40:36;;;;;;;22.77;8.03;;;13.50;99.90;;;;;;7288068;19;20187;-79
2024/04/14 03:43:03;;;;;;;20.90;8.10;;;13.50;99.90;;;;;;7288429;19;20209;-79
2024/04/14 03:45:29;;;;;;;27.90;9.60;;;13.50;99.90;;;;;;7286857;19;20290;-79
2024/04/14 03:47:55;;;;;;;24.10;9.17;;;13.50;99.90;;;;;;7287838;19;20236;-79
2024/04/14 03:50:21;;;;;;;20.40;8.20;;;13.60;99.90;;;;;;7310845;19;20217;-79
2024/04/14 03:52:47;;;;;;;22.40;8.70;;;13.70;99.90;;;;;;7287703;19;20202;-79
2024/04/14 03:55:13;;;;;;;21.27;8.23;;;13.70;99.90;;;;;;7289592;19;20185;-79
2024/04/14 03:57:38;;;;;;;18.73;8.20;;;13.70;99.90;;;;;;7287140;19;20189;-80
2024/04/14 04:00:05;;;;;;;22.77;8.43;;;13.70;99.90;;;;;;7285398;19;20186;-80
2024/04/14 04:02:40;;;;;;;21.73;9.00;;;13.50;99.90;;;;;;7288219;19;20201;-80
2024/04/14 04:05:07;;;;;;;20.70;8.47;;;13.50;99.90;;;;;;7287999;19;20197;-80
2024/04/14 04:07:34;;;;;;;18.90;8.87;;;13.50;99.90;;;;;;7287722;19;20185;-80
2024/04/14 04:09:59;;;;;;;23.67;9.27;;;13.40;99.90;;;;;;7287586;19;20545;-80
2024/04/14 04:12:25;;;;;;;20.63;9.30;;;13.40;99.90;;;;;;7286781;19;20813;-79
2024/04/14 04:14:51;;;;;;;21.13;8.90;;;13.30;99.90;;;;;;7309011;19;20647;-80
2024/04/14 04:17:18;;;;;;;22.77;9.30;;;13.30;99.90;;;;;;7287230;19;20775;-80
2024/04/14 04:19:44;;;;;;;21.03;8.40;;;13.40;99.90;;;;;;7285091;19;20733;-80
2024/04/14 04:22:10;;;;;;;19.97;8.43;;;13.40;99.90;;;;;;7286397;19;20215;-80
2024/04/14 04:24:36;;;;;;;19.63;8.77;;;13.30;99.90;;;;;;7286972;19;20209;-80
2024/04/14 04:27:02;;;;;;;22.50;9.00;;;13.30;99.90;;;;;;7287153;19;20188;-79
2024/04/14 04:29:29;;;;;;;23.10;8.53;;;13.20;99.90;;;;;;7286365;19;20194;-80
2024/04/14 04:31:55;;;;;;;26.53;8.83;;;13.20;99.90;;;;;;7286890;19;20194;-80
2024/04/14 04:34:22;;;;;;;23.57;9.33;;;13.20;99.90;;;;;;7309217;19;20182;-80
2024/04/14 04:36:50;;;;;;;18.10;9.07;;;13.10;99.90;;;;;;7286453;19;20186;-80
2024/04/14 04:39:19;;;;;;;24.00;8.73;;;13.20;99.90;;;;;;7285632;19;20278;-80
2024/04/14 04:41:45;;;;;;;20.77;8.73;;;13.10;99.90;;;;;;7287932;19;20196;-80
2024/04/14 04:44:11;;;;;;;22.53;8.97;;;13.10;99.90;;;;;;7287004;19;20548;-80
2024/04/14 04:46:37;;;;;;;24.93;8.93;;;13.10;99.90;;;;;;7285883;19;20552;-80
2024/04/14 04:49:03;;;;;;;21.47;8.87;;;13.10;99.90;;;;;;7285028;19;20197;-80
2024/04/14 04:51:29;;;;;;;24.90;8.83;;;13.00;99.90;;;;;;7285686;19;20279;-80
2024/04/14 04:53:55;;;;;;;22.87;8.90;;;12.90;99.90;;;;;;7285370;19;20878;-80
2024/04/14 04:56:21;;;;;;;25.83;9.70;;;13.00;99.90;;;;;;7308940;19;20187;-80
2024/04/14 04:58:47;;;;;;;25.53;9.60;;;13.00;99.90;;;;;;7284675;19;20659;-80
2024/04/14 05:01:12;;;;;;;22.87;9.73;;;13.00;99.90;;;;;;7286860;19;20199;-80
2024/04/14 05:03:38;;;;;;;23.90;9.00;;;13.10;99.90;;;;;;7285761;19;20185;-80
2024/04/14 05:06:05;;;;;;;25.60;9.07;;;13.10;99.90;;;;;;7285051;19;20196;-80
2024/04/14 05:08:34;;;;;;;22.87;8.60;;;13.20;99.90;;;;;;7284956;19;20533;-80
2024/04/14 05:11:00;;;;;;;25.50;9.80;;;13.30;99.90;;;;;;7285272;19;20537;-80
2024/04/14 05:13:29;;;;;;;21.70;9.40;;;13.30;99.90;;;;;;7285432;19;20185;-80
2024/04/14 05:15:55;;;;;;;23.03;9.07;;;13.50;99.90;;;;;;7286272;19;20223;-80
2024/04/14 05:18:21;;;;;;;23.77;9.23;;;13.50;99.90;;;;;;7307168;19;20194;-81
2024/04/14 05:20:47;;;;;;;24.43;9.13;;;13.50;99.90;;;;;;7284701;19;20200;-80
2024/04/14 05:23:13;;;;;;;25.07;9.23;;;13.60;99.90;;;;;;7285707;19;20179;-80
2024/04/14 05:25:41;;;;;;;21.00;9.57;;;13.70;99.90;;;;;;7283649;19;20209;-80
2024/04/14 05:28:08;;;;;;;23.33;9.10;;;13.70;99.90;;;;;;7284845;19;20210;-80
2024/04/14 05:30:36;;;;;;;22.33;9.40;;;13.70;99.90;;;;;;7286045;19;20659;-79
2024/04/14 05:33:02;;;;;;;20.60;8.63;;;13.80;99.90;;;;;;7284415;19;20200;-80
2024/04/14 05:35:27;;;;;;;25.97;9.97;;;13.90;99.90;;;;;;7285731;19;20191;-79
2024/04/14 05:37:54;;;;;;;22.30;9.57;;;14.00;99.90;;;;;;7289917;19;20199;-79
2024/04/14 05:40:20;;;;;;;20.70;9.40;;;14.00;99.90;;;;;;7307357;19;20198;-80
2024/04/14 05:42:46;;;;;;;23.30;8.53;;;14.10;99.90;;;;;;7284434;19;20188;-79
2024/04/14 05:45:22;;;;;;;21.60;9.20;;;14.20;99.90;;;;;;7282856;19;20199;-79
2024/04/14 05:47:48;;;;;;;23.60;8.73;;;14.20;99.90;;;;;;7285273;19;20526;-78
2024/04/14 05:50:13;;;;;;;18.93;9.27;;;14.30;99.90;;;;;;7263017;19;20198;-78
2024/04/14 05:52:39;;;;;;;24.60;9.23;;;14.30;99.90;;;;;;7283339;19;20198;-80
2024/04/14 05:55:05;;;;;;;23.33;8.97;;;14.40;99.90;;;;;;7284110;19;20214;-80
2024/04/14 05:57:31;;;;;;;25.17;9.40;;;14.50;99.90;;;;;;7284274;19;20556;-80
2024/04/14 05:59:57;;;;;;;24.23;9.47;;;14.60;99.90;;;;;;7282425;19;20190;-79
2024/04/14 06:02:23;;;;;;;23.27;8.87;;;14.70;99.90;;;;;;7298605;19;20188;-80
2024/04/14 06:04:50;;;;;;;24.07;10.00;;;14.60;99.90;;;;;;7300740;19;20194;-79
2024/04/14 06:07:15;;;;;;;20.00;8.63;;;14.70;99.90;;;;;;7283440;19;20287;-79
2024/04/14 06:09:41;;;;;;;23.00;9.30;;;14.70;99.90;;;;;;7284662;19;20651;-79
2024/04/14 06:12:07;;;;;;;22.17;9.00;;;14.70;99.90;;;;;;7283222;19;20544;-79
2024/04/14 06:14:33;;;;;;;24.40;9.27;;;14.80;99.90;;;;;;7284523;19;20191;-79
2024/04/14 06:16:59;;;;;;;20.40;9.20;;;14.90;99.90;;;;;;7283677;19;20220;-79
2024/04/14 06:19:24;;;;;;;26.63;9.73;;;15.00;99.90;;;;;;7283169;19;20192;-78
2024/04/14 06:21:50;;;;;;;20.13;9.30;;;15.00;99.90;;;;;;7304250;19;20195;-80
2024/04/14 06:24:16;;;;;;;26.80;10.57;;;15.00;99.90;;;;;;7283650;19;20190;-80
2024/04/14 06:26:44;;;;;;;22.10;9.53;;;15.00;99.90;;;;;;7282851;19;20232;-80
2024/04/14 06:29:10;;;;;;;26.27;10.50;;;15.00;99.90;;;;;;7284261;19;20184;-78
2024/04/14 06:31:36;;;;;;;23.37;9.60;;;15.10;99.90;;;;;;7282520;19;20215;-79
2024/04/14 06:34:02;;;;;;;22.70;9.00;;;15.20;99.90;;;;;;7281665;19;20219;-79
2024/04/14 06:36:27;;;;;;;27.20;9.63;;;15.30;99.90;;;;;;7281300;19;20273;-79
2024/04/14 06:38:54;;;;;;;23.03;9.53;;;15.40;99.90;;;;;;7298667;19;20216;-79
2024/04/14 06:41:20;;;;;;;25.87;9.40;;;15.40;99.90;;;;;;7310862;19;20210;-80
2024/04/14 06:43:46;;;;;;;22.83;9.70;;;15.50;99.90;;;;;;7290346;19;20278;-80
2024/04/14 06:46:12;;;;;;;22.33;10.10;;;15.60;99.90;;;;;;7287595;19;20196;-80
2024/04/14 06:48:37;;;;;;;24.97;10.70;;;15.80;99.90;;;;;;7289399;19;20668;-80
2024/04/14 06:51:03;;;;;;;27.00;10.40;;;15.90;99.90;;;;;;7289416;19;20188;-80
2024/04/14 06:53:29;;;;;;;26.53;9.93;;;15.90;99.90;;;;;;7287770;19;20287;-79
2024/04/14 06:55:58;;;;;;;23.87;10.10;;;15.90;99.90;;;;;;7290360;19;20207;-79
2024/04/14 06:58:24;;;;;;;25.33;11.13;;;15.90;99.90;;;;;;7290784;19;20554;-79
2024/04/14 07:00:50;;;;;;;26.87;10.73;;;15.90;99.90;;;;;;7310775;19;20184;-80
2024/04/14 07:03:15;;;;;;;22.33;10.60;;;15.90;99.90;;;;;;7289992;19;20619;-80
2024/04/14 07:05:41;;;;;;;25.40;10.37;;;15.90;99.90;;;;;;7287085;19;20187;-80
2024/04/14 07:08:07;;;;;;;22.67;10.10;;;15.90;99.90;;;;;;7287522;19;20192;-79
2024/04/14 07:10:35;;;;;;;23.57;10.40;;;16.00;99.90;;;;;;7288912;19;20208;-80
2024/04/14 07:13:01;;;;;;;24.13;10.40;;;16.00;99.90;;;;;;7288401;19;20180;-80
2024/04/14 07:15:26;;;;;;;22.87;9.40;;;16.10;99.90;;;;;;7289048;19;20188;-79
2024/04/14 07:17:52;;;;;;;26.17;11.17;;;16.20;99.90;;;;;;7307381;19;20576;-80
2024/04/14 07:20:18;;;;;;;26.13;10.10;;;16.30;99.90;;;;;;7298946;19;20192;-80
2024/04/14 07:22:47;;;;;;;25.93;10.97;;;16.50;99.90;;;;;;7288397;19;20982;-81
2024/04/14 07:25:12;;;;;;;25.97;10.60;;;16.70;99.90;;;;;;7289853;19;20699;-80
2024/04/14 07:27:38;;;;;;;25.20;10.57;;;16.90;99.90;;;;;;7287544;19;20247;-81
2024/04/14 07:30:04;;;;;;;27.97;10.57;;;16.90;99.90;;;;;;7287990;19;20211;-80
2024/04/14 07:32:30;;;;;;;21.57;9.83;;;16.70;99.90;;;;;;7287742;19;20192;-80
2024/04/14 07:34:56;;;;;;;24.83;10.43;;;16.70;99.90;;;;;;7287418;19;20195;-80
2024/04/14 07:37:22;;;;;;;21.90;10.90;;;16.50;99.90;;;;;;7306196;19;20209;-80
2024/04/14 07:39:48;;;;;;;26.97;11.77;;;16.60;99.90;;;;;;7285809;19;20200;-80
2024/04/14 07:42:13;;;;;;;22.80;11.17;;;16.60;99.90;;;;;;7284831;19;20197;-80
2024/04/14 07:44:39;;;;;;;24.43;10.83;;;16.60;99.90;;;;;;7285002;19;20213;-80
2024/04/14 07:47:05;;;;;;;26.90;11.00;;;16.70;99.90;;;;;;7283718;19;20541;-80
2024/04/14 07:49:31;;;;;;;27.53;12.07;;;16.90;99.90;;;;;;7283238;19;20193;-80
2024/04/14 07:51:57;;;;;;;25.20;11.23;;;17.10;99.90;;;;;;7285538;19;20354;-80
2024/04/14 07:54:23;;;;;;;20.83;11.47;;;17.60;99.90;;;;;;7304572;19;20699;-80
2024/04/14 07:56:49;;;;;;;25.03;13.03;;;17.90;99.90;;;;;;7302175;19;20551;-79
2024/04/14 07:59:14;;;;;;;24.67;13.00;;;18.10;99.90;;;;;;7284054;19;20271;-80
2024/04/14 08:01:40;;;;;;;23.13;11.80;;;18.20;99.90;;;;;;7284149;19;20212;-80
2024/04/14 08:04:06;;;;;;;24.17;11.30;;;18.90;99.90;;;;;;7283935;19;20660;-80
2024/04/14 08:06:32;;;;;;;24.33;11.90;;;19.70;99.90;;;;;;7283599;19;20189;-79
2024/04/14 08:08:57;;;;;;;21.50;11.73;;;19.90;99.90;;;;;;7286486;19;20197;-80
2024/04/14 08:11:24;;;;;;;22.03;11.50;;;20.10;99.90;;;;;;7296496;19;20273;-79
2024/04/14 08:13:50;;;;;;;20.80;10.50;;;20.40;99.90;;;;;;7308060;19;20191;-79
2024/04/14 08:16:16;;;;;;;22.43;10.20;;;20.80;99.90;;;;;;7285928;19;20232;-80
2024/04/14 08:18:44;;;;;;;16.70;9.33;;;21.00;99.90;;;;;;7284142;19;20188;-78
2024/04/14 08:21:11;;;;;;;22.83;9.30;;;21.40;99.90;;;;;;7285336;19;20998;-80
2024/04/14 08:23:37;;;;;;;18.20;8.60;;;22.70;99.90;;;;;;7283303;19;20189;-79
2024/04/14 08:26:03;;;;;;;17.87;8.97;;;23.20;99.90;;;;;;7283826;19;20231;-79
2024/04/14 08:28:29;;;;;;;17.63;8.63;;;23.60;99.90;;;;;;7284082;19;20601;-78
2024/04/14 08:30:55;;;;;;;19.77;9.30;;;23.30;99.90;;;;;;7285628;19;20181;-79
2024/04/14 08:33:20;;;;;;;17.67;8.67;;;23.20;99.90;;;;;;7306382;19;20196;-79
2024/04/14 08:35:46;;;;;;;19.33;9.37;;;23.10;99.90;;;;;;7283468;19;20567;-79
2024/04/14 08:38:12;;;;;;;21.73;8.90;;;22.80;99.90;;;;;;7267858;19;309763;-79
2024/04/14 08:40:38;;;;;;;19.37;9.07;;;22.60;99.90;;;;;;7279117;19;20204;-79
2024/04/14 08:43:04;;;;;;;20.27;8.87;;;22.20;99.90;;;;;;7281500;19;20185;-80
2024/04/14 08:45:32;;;;;;;19.77;8.83;;;21.90;99.90;;;;;;7281617;19;20202;-79
2024/04/14 08:48:02;;;;;;;20.00;8.60;;;21.60;99.90;;;;;;7281494;19;20189;-79
2024/04/14 08:50:28;;;;;;;22.53;8.57;;;21.50;99.90;;;;;;7281444;19;20268;-80
2024/04/14 08:52:54;;;;;;;20.83;8.57;;;21.30;99.90;;;;;;7285483;19;20270;-79
2024/04/14 08:55:20;;;;;;;16.37;7.17;;;21.00;99.90;;;;;;7303332;19;20249;-79
2024/04/14 08:57:47;;;;;;;17.03;8.20;;;21.00;99.90;;;;;;7280466;19;20211;-79
2024/04/14 09:00:17;;;;;;;19.07;8.47;;;21.00;99.90;;;;;;7276320;19;20215;-79
2024/04/14 09:02:45;;;;;;;19.67;7.87;;;21.00;99.90;;;;;;7279572;19;20220;-79
2024/04/14 09:05:15;;;;;;;16.90;7.97;;;20.90;99.90;;;;;;7280508;19;20186;-79
2024/04/14 09:07:42;;;;;;;17.93;7.63;;;20.90;99.90;;;;;;7281389;19;20201;-80
2024/04/14 09:10:08;;;;;;;17.70;7.53;;;20.80;99.90;;;;;;7277948;19;20191;-79
2024/04/14 09:12:33;;;;;;;16.90;7.47;;;20.70;99.90;;;;;;7279257;19;20259;-80
2024/04/14 09:14:59;;;;;;;16.67;8.13;;;20.60;99.90;;;;;;7282213;19;20216;-81
2024/04/14 09:17:25;;;;;;;20.40;8.10;;;20.40;99.90;;;;;;7287186;19;20188;-80
2024/04/14 09:19:51;;;;;;;19.93;8.17;;;20.30;99.90;;;;;;7307335;19;20206;-80
2024/04/14 09:22:20;;;;;;;16.60;7.27;;;19.90;99.90;;;;;;7308347;19;20669;-80
2024/04/14 09:24:46;;;;;;;16.40;7.57;;;19.80;99.90;;;;;;7391318;19;20159;-80
2024/04/14 09:27:11;;;;;;;17.83;7.67;;;19.90;99.90;;;;;;7341324;19;20667;-80
2024/04/14 09:29:37;;;;;;;18.30;7.60;;;20.00;99.90;;;;;;7278814;19;20194;-81
2024/04/14 09:32:03;;;;;;;19.20;7.87;;;19.80;99.90;;;;;;7277600;19;20189;-80
2024/04/14 09:34:29;;;;;;;15.97;7.13;;;19.80;99.90;;;;;;7278546;19;20207;-80
2024/04/14 09:36:55;;;;;;;18.67;7.30;;;19.90;99.90;;;;;;7279817;19;20522;-79
2024/04/14 09:39:21;;;;;;;16.63;6.90;;;20.00;99.90;;;;;;7281213;19;20785;-79
2024/04/14 09:41:48;;;;;;;16.37;6.93;;;20.50;99.90;;;;;;7274355;19;20267;-79
2024/04/14 09:44:15;;;;;;;16.07;6.50;;;20.80;99.90;;;;;;7300568;19;21060;-79
2024/04/14 09:46:43;;;;;;;14.27;6.30;;;21.00;99.90;;;;;;7279478;19;20852;-79
2024/04/14 09:49:12;;;;;;;18.27;7.20;;;20.40;99.90;;;;;;7279973;19;20199;-79
2024/04/14 09:51:40;;;;;;;14.83;6.33;;;20.00;99.90;;;;;;7278177;19;20245;-79
2024/04/14 09:54:12;;;;;;;17.60;6.83;;;19.90;99.90;;;;;;7280505;19;20202;-79
2024/04/14 09:56:37;;;;;;;17.30;6.80;;;20.00;99.90;;;;;;7277331;19;20206;-79
2024/04/14 09:59:03;;;;;;;14.60;6.57;;;19.90;99.90;;;;;;7279021;19;20206;-79
2024/04/14 10:01:42;;;;;;;15.40;6.37;;;20.30;99.90;;;;;;7278403;19;20938;-79
2024/04/14 10:04:08;;;;;;;18.83;6.90;;;21.00;99.90;;;;;;7278741;19;20660;-79
2024/04/14 10:06:37;;;;;;;19.50;6.77;;;20.90;99.90;;;;;;7278800;19;20189;-79
2024/04/14 10:09:03;;;;;;;18.10;7.90;;;21.20;99.90;;;;;;7279167;19;20184;-78
2024/04/14 10:11:31;;;;;;;18.43;6.33;;;22.20;99.90;;;;;;7277805;19;20535;-78
2024/04/14 10:13:58;;;;;;;19.03;8.70;;;23.00;99.90;;;;;;7277784;19;20184;-78
2024/04/14 10:16:26;;;;;;;15.93;6.87;;;23.60;99.90;;;;;;7278136;19;20180;-78
2024/04/14 10:18:51;;;;;;;17.43;6.10;;;23.80;99.90;;;;;;7277888;19;20532;-79
2024/04/14 10:21:19;;;;;;;16.10;7.37;;;23.80;99.90;;;;;;7277028;19;20192;-78
2024/04/14 10:23:56;;;;;;;18.03;6.57;;;23.40;99.90;;;;;;7289873;19;20565;-78
2024/04/14 10:26:22;;;;;;;16.00;6.20;;;23.40;99.90;;;;;;7279241;19;20188;-79
2024/04/14 10:28:53;;;;;;;12.43;5.27;;;24.20;99.90;;;;;;7276772;19;20321;-79
2024/04/14 10:31:32;;;;;;;13.75;5.38;;;26.00;99.90;;;;;;7278837;19;20212;-78
2024/04/14 10:34:01;;;;;;;14.90;5.30;;;26.30;99.90;;;;;;7279062;19;20201;-78
2024/04/14 10:36:27;;;;;;;12.52;5.45;;;27.20;99.90;;;;;;7277299;19;20284;-78
2024/04/14 10:38:53;;;;;;;18.25;7.78;;;28.00;99.90;;;;;;7278845;19;20196;-78
2024/04/14 10:41:19;;;;;;;19.17;7.35;;;27.70;99.90;;;;;;7277468;19;20189;-79
2024/04/14 10:43:45;;;;;;;14.02;4.38;;;27.80;99.90;;;;;;7295337;19;20189;-79
2024/04/14 10:46:10;;;;;;;13.38;5.10;;;26.50;99.90;;;;;;7291435;19;20718;-79
2024/04/14 10:48:44;;;;;;;13.68;5.05;;;25.70;99.90;;;;;;7277160;19;20890;-78
2024/04/14 10:51:13;;;;;;;13.35;4.70;;;25.20;99.90;;;;;;7277772;19;20567;-79
2024/04/14 10:53:39;;;;;;;11.27;4.68;;;24.80;99.90;;;;;;7277386;19;20252;-78
2024/04/14 10:56:06;;;;;;;12.27;4.68;;;25.00;99.90;;;;;;7278509;19;20205;-78
2024/04/14 10:58:36;;;;;;;8.95;4.13;;;24.80;99.90;;;;;;7277833;19;20189;-78
2024/04/14 11:01:03;;;;;;;11.40;4.27;;;23.90;99.90;;;;;;7275608;19;20208;-77
2024/04/14 11:03:30;;;;;;;11.50;4.27;;;23.70;99.90;;;;;;7277924;19;20200;-78
2024/04/14 11:05:57;;;;;;;13.93;4.33;;;23.90;99.90;;;;;;7277994;19;20313;-78
2024/04/14 11:08:24;;;;;;;13.07;4.60;;;23.60;99.90;;;;;;7277934;19;20185;-78
2024/04/14 11:10:52;;;;;;;12.63;4.50;;;23.20;99.90;;;;;;7276122;19;20644;-78
2024/04/14 11:13:20;;;;;;;11.50;4.03;;;23.00;99.90;;;;;;7278688;19;20212;-77
2024/04/14 11:15:46;;;;;;;10.87;4.17;;;22.70;99.90;;;;;;7282541;19;20683;-78
2024/04/14 11:18:12;;;;;;;11.40;4.23;;;22.50;99.90;;;;;;7298403;19;20361;-77
2024/04/14 11:20:46;;;;;;;12.60;4.17;;;22.20;99.90;;;;;;7277648;19;20200;-77
2024/04/14 11:23:12;;;;;;;14.80;4.53;;;21.80;99.90;;;;;;7281118;19;20191;-77
2024/04/14 11:25:38;;;;;;;9.90;4.00;;;21.70;99.90;;;;;;7285046;19;20192;-77
2024/04/14 11:28:04;;;;;;;12.00;4.70;;;21.90;99.90;;;;;;7284213;19;20205;-77
2024/04/14 11:30:31;;;;;;;12.27;4.40;;;21.80;99.90;;;;;;7284089;19;20184;-81
2024/04/14 11:32:58;;;;;;;11.00;4.77;;;21.80;99.90;;;;;;7284121;19;20196;-79
2024/04/14 11:35:24;;;;;;;13.27;4.80;;;21.70;99.90;;;;;;7282595;19;20308;-79
2024/04/14 11:37:53;;;;;;;14.80;5.30;;;21.90;99.90;;;;;;7282400;19;20702;-77
2024/04/14 11:40:22;;;;;;;11.73;5.10;;;21.60;99.90;;;;;;7283837;19;20188;-77
2024/04/14 11:42:48;;;;;;;13.03;4.70;;;21.50;99.90;;;;;;7284080;19;20598;-80
2024/04/14 11:45:14;;;;;;;13.10;5.57;;;21.40;99.90;;;;;;7305018;19;20721;-77
2024/04/14 11:47:40;;;;;;;12.57;4.60;;;20.90;99.90;;;;;;7284499;19;20216;-77
2024/04/14 11:50:10;;;;;;;14.27;5.63;;;21.00;99.90;;;;;;7285017;19;20178;-77
2024/04/14 11:52:36;;;;;;;12.50;4.97;;;20.90;99.90;;;;;;7284851;19;21898;-78
2024/04/14 11:55:03;;;;;;;11.03;4.40;;;21.30;99.90;;;;;;7284064;19;20659;-78
2024/04/14 11:57:29;;;;;;;11.50;4.53;;;21.40;99.90;;;;;;7282860;19;20193;-77
2024/04/14 11:59:55;;;;;;;12.53;3.70;;;22.30;99.90;;;;;;7281769;19;20277;-77
2024/04/14 12:02:21;;;;;;;11.53;4.07;;;23.20;99.90;;;;;;7282234;19;20546;-78
2024/04/14 12:04:51;;;;;;;8.80;3.63;;;24.20;99.90;;;;;;7280848;19;20251;-77
2024/04/14 12:07:17;;;;;;;10.85;3.67;;;24.40;99.90;;;;;;7280774;19;20552;-77
2024/04/14 12:09:44;;;;;;;10.85;3.72;;;25.50;99.90;;;;;;7305573;19;20200;-78
2024/04/14 12:12:10;;;;;;;10.05;3.88;;;26.40;99.90;;;;;;7283273;19;20185;-78
2024/04/14 12:14:36;;;;;;;10.23;3.70;;;25.90;99.90;;;;;;7283017;19;21215;-78
2024/04/14 12:17:01;;;;;;;10.82;3.85;;;25.40;99.90;;;;;;7283586;19;21529;-78
2024/04/14 12:19:27;;;;;;;9.68;3.85;;;26.30;99.90;;;;;;7281125;19;20638;-78
2024/04/14 12:21:53;;;;;;;11.05;3.75;;;26.70;98.10;;;;;;7282183;19;21199;-78
2024/04/14 12:24:19;;;;;;;9.45;3.60;;;27.80;98.50;;;;;;7282914;19;20185;-77
2024/04/14 12:26:44;;;;;;;9.98;3.70;;;27.90;95.50;;;;;;7305170;19;20296;-78
2024/04/14 12:29:10;;;;;;;8.60;3.60;;;27.30;94.30;;;;;;7280836;19;20188;-78
2024/04/14 12:31:36;;;;;;;8.38;3.00;;;27.10;94.80;;;;;;7282668;19;20178;-78
2024/04/14 12:34:03;;;;;;;9.68;3.17;;;25.70;96.30;;;;;;7280889;19;20576;-78